sensor_id;sensor_type;location;lat;lon;timestamp;pressure;altitude;pressure_sealevel;temperature;humidity
6833;BME280;3454;42.654;23.378;2023-03-25T00:00:54;64219.63;;;12.08;70.56
6833;BME280;3454;42.654;23.378;2023-03-25T00:03:25;64214.13;;;12.03;69.56
6833;BME280;3454;42.654;23.378;2023-03-25T00:05:55;64218.19;;;12.09;69.88
6833;BME280;3454;42.654;23.378;2023-03-25T00:08:21;64211.59;;;12.03;69.35
6833;BME280;3454;42.654;23.378;2023-03-25T00:10:52;64208.09;;;11.97;70.57
6833;BME280;3454;42.654;23.378;2023-03-25T00:13:20;64214.13;;;12.03;71.41
6833;BME280;3454;42.654;23.378;2023-03-25T00:15:47;64215.25;;;12.04;71.12
6833;BME280;3454;42.654;23.378;2023-03-25T00:18:14;64208.84;;;12.00;71.62
6833;BME280;3454;42.654;23.378;2023-03-25T00:20:42;64216.31;;;12.05;70.22
6833;BME280;3454;42.654;23.378;2023-03-25T00:23:10;64226.41;;;12.16;69.18
6833;BME280;3454;42.654;23.378;2023-03-25T00:25:36;64224.00;;;12.12;70.84
6833;BME280;3454;42.654;23.378;2023-03-25T00:28:01;64222.34;;;12.10;69.43
6833;BME280;3454;42.654;23.378;2023-03-25T00:30:27;64219.81;;;12.10;70.42
6833;BME280;3454;42.654;23.378;2023-03-25T00:32:52;64211.59;;;12.03;69.68
6833;BME280;3454;42.654;23.378;2023-03-25T00:35:19;64203.38;;;11.95;70.58
6833;BME280;3454;42.654;23.378;2023-03-25T00:37:45;64211.38;;;12.00;70.92
6833;BME280;3454;42.654;23.378;2023-03-25T00:40:13;64188.38;;;11.79;70.81
6833;BME280;3454;42.654;23.378;2023-03-25T00:42:39;64182.03;;;11.75;70.01
6833;BME280;3454;42.654;23.378;2023-03-25T00:45:15;64193.84;;;11.84;69.66
6833;BME280;3454;42.654;23.378;2023-03-25T00:47:41;64198.44;;;11.91;70.29
6833;BME280;3454;42.654;23.378;2023-03-25T00:50:08;64203.72;;;11.93;70.69
6833;BME280;3454;42.654;23.378;2023-03-25T00:52:33;64207.78;;;11.99;70.31
6833;BME280;3454;42.654;23.378;2023-03-25T00:54:59;64187.28;;;11.78;70.51
6833;BME280;3454;42.654;23.378;2023-03-25T00:57:26;64195.72;;;11.88;70.04
6833;BME280;3454;42.654;23.378;2023-03-25T00:59:51;64168.84;;;11.63;70.89
6833;BME280;3454;42.654;23.378;2023-03-25T01:02:17;64170.28;;;11.62;70.97
6833;BME280;3454;42.654;23.378;2023-03-25T01:04:43;64187.50;;;11.80;70.16
6833;BME280;3454;42.654;23.378;2023-03-25T01:07:10;64187.81;;;11.78;70.48
6833;BME280;3454;42.654;23.378;2023-03-25T01:09:37;64171.03;;;11.65;70.55
6833;BME280;3454;42.654;23.378;2023-03-25T01:12:04;64155.69;;;11.51;71.87
6833;BME280;3454;42.654;23.378;2023-03-25T01:14:29;64159.53;;;11.55;72.13
6833;BME280;3454;42.654;23.378;2023-03-25T01:16:55;64157.88;;;11.53;72.70
6833;BME280;3454;42.654;23.378;2023-03-25T01:19:22;64162.06;;;11.55;71.73
6833;BME280;3454;42.654;23.378;2023-03-25T01:21:48;64180.16;;;11.71;70.90
6833;BME280;3454;42.654;23.378;2023-03-25T01:24:14;64164.78;;;11.57;72.09
6833;BME280;3454;42.654;23.378;2023-03-25T01:26:40;64157.88;;;11.53;72.56
6833;BME280;3454;42.654;23.378;2023-03-25T01:29:08;64153.28;;;11.47;72.45
6833;BME280;3454;42.654;23.378;2023-03-25T01:31:33;64146.38;;;11.43;71.64
6833;BME280;3454;42.654;23.378;2023-03-25T01:33:59;64134.09;;;11.29;72.18
6833;BME280;3454;42.654;23.378;2023-03-25T01:36:26;64130.28;;;11.26;72.24
6833;BME280;3454;42.654;23.378;2023-03-25T01:38:54;64123.16;;;11.19;72.85
6833;BME280;3454;42.654;23.378;2023-03-25T01:41:20;64123.72;;;11.20;72.38
6833;BME280;3454;42.654;23.378;2023-03-25T01:44:06;64135.75;;;11.31;71.76
6833;BME280;3454;42.654;23.378;2023-03-25T01:46:32;64128.63;;;11.24;71.36
6833;BME280;3454;42.654;23.378;2023-03-25T01:48:59;64133.56;;;11.29;71.22
6833;BME280;3454;42.654;23.378;2023-03-25T01:51:30;64140.56;;;11.40;71.07
6833;BME280;3454;42.654;23.378;2023-03-25T01:53:56;64102.69;;;10.98;70.91
6833;BME280;3454;42.654;23.378;2023-03-25T01:56:26;64109.69;;;11.09;71.09
6833;BME280;3454;42.654;23.378;2023-03-25T01:58:55;64105.31;;;11.05;71.77
6833;BME280;3454;42.654;23.378;2023-03-25T02:01:22;64102.03;;;11.02;72.21
6833;BME280;3454;42.654;23.378;2023-03-25T02:03:49;64106.97;;;11.07;72.27
6833;BME280;3454;42.654;23.378;2023-03-25T02:06:41;64112.75;;;11.10;71.72
6833;BME280;3454;42.654;23.378;2023-03-25T02:09:09;64117.91;;;11.17;71.11
6833;BME280;3454;42.654;23.378;2023-03-25T02:11:37;64112.97;;;11.12;71.92
6833;BME280;3454;42.654;23.378;2023-03-25T02:14:08;64106.75;;;11.04;72.27
6833;BME280;3454;42.654;23.378;2023-03-25T02:30:59;64095.78;;;10.94;72.26
6833;BME280;3454;42.654;23.378;2023-03-25T02:33:52;64089.78;;;10.88;72.42
6833;BME280;3454;42.654;23.378;2023-03-25T02:44:09;64078.50;;;10.80;72.76
6833;BME280;3454;42.654;23.378;2023-03-25T02:46:38;64062.63;;;10.66;73.66
6833;BME280;3454;42.654;23.378;2023-03-25T02:49:18;64042.69;;;10.45;74.04
6833;BME280;3454;42.654;23.378;2023-03-25T02:51:55;64070.59;;;10.71;72.81
6833;BME280;3454;42.654;23.378;2023-03-25T02:54:24;64072.78;;;10.73;72.24
6833;BME280;3454;42.654;23.378;2023-03-25T02:56:51;64059.66;;;10.61;72.69
6833;BME280;3454;42.654;23.378;2023-03-25T02:59:22;64076.63;;;10.76;72.21
6833;BME280;3454;42.654;23.378;2023-03-25T03:01:50;64077.16;;;10.77;71.09
6833;BME280;3454;42.654;23.378;2023-03-25T03:04:24;64048.59;;;10.55;71.83
6833;BME280;3454;42.654;23.378;2023-03-25T03:06:51;64056.38;;;10.58;72.35
6833;BME280;3454;42.654;23.378;2023-03-25T03:09:24;64059.88;;;10.63;71.97
6833;BME280;3454;42.654;23.378;2023-03-25T03:11:58;64038.31;;;10.41;72.49
6833;BME280;3454;42.654;23.378;2023-03-25T03:20:19;64053.09;;;10.55;72.39
6833;BME280;3454;42.654;23.378;2023-03-25T03:23:08;64043.25;;;10.46;72.98
6833;BME280;3454;42.654;23.378;2023-03-25T03:25:45;64040.72;;;10.46;73.32
6833;BME280;3454;42.654;23.378;2023-03-25T03:28:39;64038.53;;;10.44;74.82
6833;BME280;3454;42.654;23.378;2023-03-25T03:31:14;64042.34;;;10.47;74.47
6833;BME280;3454;42.654;23.378;2023-03-25T03:36:21;64039.94;;;10.43;75.58
6833;BME280;3454;42.654;23.378;2023-03-25T03:38:55;64038.09;;;10.39;76.62
6833;BME280;3454;42.654;23.378;2023-03-25T03:41:24;64046.19;;;10.51;75.05
6833;BME280;3454;42.654;23.378;2023-03-25T03:44:00;64068.06;;;10.71;73.78
6833;BME280;3454;42.654;23.378;2023-03-25T03:46:33;64071.16;;;10.71;73.48
6833;BME280;3454;42.654;23.378;2023-03-25T03:49:01;64024.84;;;10.31;74.46
6833;BME280;3454;42.654;23.378;2023-03-25T03:51:36;64008.22;;;10.13;75.83
6833;BME280;3454;42.654;23.378;2023-03-25T03:54:11;64019.16;;;10.24;75.92
6833;BME280;3454;42.654;23.378;2023-03-25T03:56:41;63999.97;;;10.06;75.94
6833;BME280;3454;42.654;23.378;2023-03-25T03:59:18;64005.47;;;10.11;77.25
6833;BME280;3454;42.654;23.378;2023-03-25T04:01:48;63999.97;;;10.06;76.81
6833;BME280;3454;42.654;23.378;2023-03-25T04:04:22;64012.06;;;10.17;76.00
6833;BME280;3454;42.654;23.378;2023-03-25T04:07:00;63989.25;;;9.98;76.41
6833;BME280;3454;42.654;23.378;2023-03-25T04:09:47;63980.50;;;9.90;77.26
6833;BME280;3454;42.654;23.378;2023-03-25T04:12:27;63964.78;;;9.71;78.57
6833;BME280;3454;42.654;23.378;2023-03-25T04:14:54;63970.47;;;9.79;77.95
6833;BME280;3454;42.654;23.378;2023-03-25T04:17:22;63977.56;;;9.85;78.17
6833;BME280;3454;42.654;23.378;2023-03-25T04:19:48;63974.50;;;9.85;77.85
6833;BME280;3454;42.654;23.378;2023-03-25T04:22:18;63984.13;;;9.91;77.48
6833;BME280;3454;42.654;23.378;2023-03-25T04:24:44;63983.59;;;9.91;78.31
6833;BME280;3454;42.654;23.378;2023-03-25T04:27:14;63963.78;;;9.77;79.20
6833;BME280;3454;42.654;23.378;2023-03-25T04:29:40;63973.41;;;9.84;78.98
6833;BME280;3454;42.654;23.378;2023-03-25T04:32:05;63969.56;;;9.80;79.96
6833;BME280;3454;42.654;23.378;2023-03-25T04:34:32;63971.22;;;9.82;80.75
6833;BME280;3454;42.654;23.378;2023-03-25T04:36:57;63980.19;;;9.92;79.97
6833;BME280;3454;42.654;23.378;2023-03-25T04:39:23;63984.66;;;9.92;80.18
6833;BME280;3454;42.654;23.378;2023-03-25T04:41:51;63993.97;;;10.00;79.41
6833;BME280;3454;42.654;23.378;2023-03-25T04:44:31;63986.84;;;9.94;79.93
6833;BME280;3454;42.654;23.378;2023-03-25T04:47:04;63985.44;;;9.95;79.27
6833;BME280;3454;42.654;23.378;2023-03-25T04:49:31;63990.38;;;9.99;79.20
6833;BME280;3454;42.654;23.378;2023-03-25T04:51:57;63996.72;;;10.03;79.07
6833;BME280;3454;42.654;23.378;2023-03-25T04:54:23;64009.53;;;10.17;78.10
6833;BME280;3454;42.654;23.378;2023-03-25T04:56:50;64011.16;;;10.19;78.02
6833;BME280;3454;42.654;23.378;2023-03-25T04:59:17;64013.69;;;10.19;78.48
6833;BME280;3454;42.654;23.378;2023-03-25T05:01:50;63998.91;;;10.05;79.49
6833;BME280;3454;42.654;23.378;2023-03-25T05:04:17;63986.00;;;9.95;79.73
6833;BME280;3454;42.654;23.378;2023-03-25T05:06:45;63983.81;;;9.93;79.24
6833;BME280;3454;42.654;23.378;2023-03-25T05:09:20;64018.63;;;10.23;79.24
6833;BME280;3454;42.654;23.378;2023-03-25T05:11:49;64046.50;;;10.49;77.33
6833;BME280;3454;42.654;23.378;2023-03-25T05:14:18;64031.97;;;10.38;76.57
6833;BME280;3454;42.654;23.378;2023-03-25T05:16:44;64041.59;;;10.44;76.52
6833;BME280;3454;42.654;23.378;2023-03-25T05:19:10;64042.69;;;10.45;76.29
6833;BME280;3454;42.654;23.378;2023-03-25T05:21:38;64026.81;;;10.31;75.62
6833;BME280;3454;42.654;23.378;2023-03-25T05:24:07;64015.31;;;10.20;76.15
6833;BME280;3454;42.654;23.378;2023-03-25T05:26:35;64009.31;;;10.14;76.62
6833;BME280;3454;42.654;23.378;2023-03-25T05:29:02;64025.72;;;10.30;76.43
6833;BME280;3454;42.654;23.378;2023-03-25T05:31:28;64041.06;;;10.44;75.58
6833;BME280;3454;42.654;23.378;2023-03-25T05:33:53;64063.69;;;10.67;74.94
6833;BME280;3454;42.654;23.378;2023-03-25T05:36:19;64084.50;;;10.86;74.53
6833;BME280;3454;42.654;23.378;2023-03-25T05:38:45;64072.25;;;10.72;73.80
6833;BME280;3454;42.654;23.378;2023-03-25T05:41:14;64062.63;;;10.66;75.02
6833;BME280;3454;42.654;23.378;2023-03-25T05:43:43;64080.47;;;10.80;73.84
6833;BME280;3454;42.654;23.378;2023-03-25T05:46:16;64091.97;;;10.90;73.57
6833;BME280;3454;42.654;23.378;2023-03-25T05:48:42;64099.06;;;10.97;73.16
6833;BME280;3454;42.654;23.378;2023-03-25T05:51:18;64128.63;;;11.24;72.24
6833;BME280;3454;42.654;23.378;2023-03-25T05:53:47;64129.72;;;11.25;71.89
6833;BME280;3454;42.654;23.378;2023-03-25T05:56:17;64143.97;;;11.38;71.65
6833;BME280;3454;42.654;23.378;2023-03-25T05:58:46;64150.56;;;11.44;71.59
6833;BME280;3454;42.654;23.378;2023-03-25T06:01:13;64160.06;;;11.55;71.46
6833;BME280;3454;42.654;23.378;2023-03-25T06:03:40;64173.25;;;11.67;70.29
6833;BME280;3454;42.654;23.378;2023-03-25T06:06:10;64194.06;;;11.87;69.09
6833;BME280;3454;42.654;23.378;2023-03-25T06:08:49;64189.69;;;11.82;69.48
6833;BME280;3454;42.654;23.378;2023-03-25T06:11:15;64177.97;;;11.69;69.63
6833;BME280;3454;42.654;23.378;2023-03-25T06:13:42;64197.16;;;11.87;69.46
6833;BME280;3454;42.654;23.378;2023-03-25T06:16:21;64191.13;;;11.82;69.66
6833;BME280;3454;42.654;23.378;2023-03-25T06:18:51;64213.56;;;12.02;68.81
6833;BME280;3454;42.654;23.378;2023-03-25T06:21:21;64256.22;;;12.46;67.10
6833;BME280;3454;42.654;23.378;2023-03-25T06:23:47;64236.06;;;12.23;67.50
6833;BME280;3454;42.654;23.378;2023-03-25T06:26:17;64252.72;;;12.40;68.09
6833;BME280;3454;42.654;23.378;2023-03-25T06:28:43;64276.31;;;12.62;67.45
6833;BME280;3454;42.654;23.378;2023-03-25T06:33:38;64272.44;;;12.58;68.38
6833;BME280;3454;42.654;23.378;2023-03-25T06:36:03;64267.88;;;12.52;68.41
6833;BME280;3454;42.654;23.378;2023-03-25T06:38:29;64255.78;;;12.41;68.95
6833;BME280;3454;42.654;23.378;2023-03-25T06:40:54;64277.16;;;12.60;69.08
6833;BME280;3454;42.654;23.378;2023-03-25T06:43:21;64290.56;;;12.75;68.88
6833;BME280;3454;42.654;23.378;2023-03-25T06:45:49;64304.81;;;12.88;66.89
6833;BME280;3454;42.654;23.378;2023-03-25T06:48:15;64302.28;;;12.88;67.27
6833;BME280;3454;42.654;23.378;2023-03-25T06:50:41;64323.81;;;13.03;66.97
6833;BME280;3454;42.654;23.378;2023-03-25T06:53:06;64316.13;;;12.96;67.65
6833;BME280;3454;42.654;23.378;2023-03-25T06:55:32;64327.88;;;13.09;66.66
6833;BME280;3454;42.654;23.378;2023-03-25T06:57:57;64334.47;;;13.15;66.82
6833;BME280;3454;42.654;23.378;2023-03-25T07:00:23;64337.22;;;13.18;67.19
6833;BME280;3454;42.654;23.378;2023-03-25T07:02:51;64344.34;;;13.24;67.76
6833;BME280;3454;42.654;23.378;2023-03-25T07:05:17;64365.00;;;13.41;67.88
6833;BME280;3454;42.654;23.378;2023-03-25T07:07:43;64409.09;;;13.84;90.69
6833;BME280;3454;42.654;23.378;2023-03-25T07:10:12;64393.72;;;13.70;67.29
6833;BME280;3454;42.654;23.378;2023-03-25T07:12:38;64368.50;;;13.46;69.53
6833;BME280;3454;42.654;23.378;2023-03-25T07:15:11;64372.34;;;13.50;68.02
6833;BME280;3454;42.654;23.378;2023-03-25T07:17:36;64388.25;;;13.65;68.27
6833;BME280;3454;42.654;23.378;2023-03-25T07:20:04;64381.66;;;13.59;67.64
6833;BME280;3454;42.654;23.378;2023-03-25T07:22:31;64395.19;;;13.69;67.79
6833;BME280;3454;42.654;23.378;2023-03-25T07:24:56;64393.19;;;13.69;68.10
6833;BME280;3454;42.654;23.378;2023-03-25T07:27:23;64398.47;;;13.72;67.73
6833;BME280;3454;42.654;23.378;2023-03-25T07:29:49;64403.63;;;13.79;85.55
6833;BME280;3454;42.654;23.378;2023-03-25T07:32:15;64467.78;;;14.42;80.13
6833;BME280;3454;42.654;23.378;2023-03-25T07:34:40;64474.50;;;14.44;67.33
6833;BME280;3454;42.654;23.378;2023-03-25T07:37:06;64461.53;;;14.34;67.45
6833;BME280;3454;42.654;23.378;2023-03-25T07:39:32;64470.66;;;14.40;66.46
6833;BME280;3454;42.654;23.378;2023-03-25T07:41:58;64491.53;;;14.59;63.86
6833;BME280;3454;42.654;23.378;2023-03-25T07:44:23;64483.84;;;14.52;64.39
6833;BME280;3454;42.654;23.378;2023-03-25T07:46:49;64481.66;;;14.50;64.43
6833;BME280;3454;42.654;23.378;2023-03-25T07:49:15;64486.03;;;14.54;64.37
6833;BME280;3454;42.654;23.378;2023-03-25T07:51:41;64492.63;;;14.60;64.64
6833;BME280;3454;42.654;23.378;2023-03-25T07:54:07;64477.78;;;14.47;63.62
6833;BME280;3454;42.654;23.378;2023-03-25T07:56:32;64467.00;;;14.39;64.64
6833;BME280;3454;42.654;23.378;2023-03-25T07:58:58;64445.34;;;14.17;65.08
6833;BME280;3454;42.654;23.378;2023-03-25T08:01:23;64449.75;;;14.21;64.71
6833;BME280;3454;42.654;23.378;2023-03-25T08:03:49;64466.47;;;14.39;66.77
6833;BME280;3454;42.654;23.378;2023-03-25T08:06:14;64499.97;;;14.69;64.58
6833;BME280;3454;42.654;23.378;2023-03-25T08:08:39;64518.44;;;14.84;64.79
6833;BME280;3454;42.654;23.378;2023-03-25T08:11:06;64512.06;;;14.80;62.98
6833;BME280;3454;42.654;23.378;2023-03-25T08:13:32;64508.22;;;14.77;63.60
6833;BME280;3454;42.654;23.378;2023-03-25T08:15:58;64521.00;;;14.84;65.54
6833;BME280;3454;42.654;23.378;2023-03-25T08:18:23;64557.81;;;15.18;64.50
6833;BME280;3454;42.654;23.378;2023-03-25T08:20:50;64567.38;;;15.29;62.39
6833;BME280;3454;42.654;23.378;2023-03-25T08:23:19;64576.72;;;15.37;62.66
6833;BME280;3454;42.654;23.378;2023-03-25T08:25:49;64621.50;;;15.80;61.78
6833;BME280;3454;42.654;23.378;2023-03-25T08:28:16;64644.63;;;16.02;60.58
6833;BME280;3454;42.654;23.378;2023-03-25T08:30:43;64654.31;;;16.08;58.31
6833;BME280;3454;42.654;23.378;2023-03-25T08:33:09;64657.81;;;16.14;58.30
6833;BME280;3454;42.654;23.378;2023-03-25T08:35:36;64652.09;;;16.06;56.86
6833;BME280;3454;42.654;23.378;2023-03-25T08:38:03;64658.69;;;16.12;57.07
6833;BME280;3454;42.654;23.378;2023-03-25T08:40:33;64689.53;;;16.40;57.30
6833;BME280;3454;42.654;23.378;2023-03-25T08:43:02;64724.03;;;16.69;54.96
6833;BME280;3454;42.654;23.378;2023-03-25T08:45:27;64762.78;;;17.07;58.04
6833;BME280;3454;42.654;23.378;2023-03-25T08:47:53;64778.75;;;17.22;54.98
6833;BME280;3454;42.654;23.378;2023-03-25T08:50:18;64785.03;;;17.30;53.32
6833;BME280;3454;42.654;23.378;2023-03-25T08:52:43;64798.03;;;17.39;53.52
6833;BME280;3454;42.654;23.378;2023-03-25T08:55:10;64835.38;;;17.78;53.23
6833;BME280;3454;42.654;23.378;2023-03-25T08:57:35;64871.00;;;18.08;51.55
6833;BME280;3454;42.654;23.378;2023-03-25T09:00:03;64889.56;;;18.23;51.87
6833;BME280;3454;42.654;23.378;2023-03-25T09:02:36;64895.28;;;18.30;51.65
6833;BME280;3454;42.654;23.378;2023-03-25T09:05:01;64877.09;;;18.14;51.23
6833;BME280;3454;42.654;23.378;2023-03-25T09:07:28;64877.63;;;18.14;50.38
6833;BME280;3454;42.654;23.378;2023-03-25T09:09:54;64884.81;;;18.21;49.81
6833;BME280;3454;42.654;23.378;2023-03-25T09:12:20;64934.13;;;18.68;49.74
6833;BME280;3454;42.654;23.378;2023-03-25T09:14:45;64933.34;;;18.65;50.04
6833;BME280;3454;42.654;23.378;2023-03-25T09:17:10;64975.28;;;19.03;49.22
6833;BME280;3454;42.654;23.378;2023-03-25T09:19:36;65021.66;;;19.46;49.49
6833;BME280;3454;42.654;23.378;2023-03-25T09:22:02;65037.47;;;19.58;46.63
6833;BME280;3454;42.654;23.378;2023-03-25T09:24:27;65073.56;;;19.93;48.23
6833;BME280;3454;42.654;23.378;2023-03-25T09:26:53;65131.59;;;20.46;47.69
6833;BME280;3454;42.654;23.378;2023-03-25T09:29:18;65176.72;;;20.84;47.58
6833;BME280;3454;42.654;23.378;2023-03-25T09:31:44;65190.16;;;20.99;45.16
6833;BME280;3454;42.654;23.378;2023-03-25T09:34:09;65137.66;;;20.51;46.59
6833;BME280;3454;42.654;23.378;2023-03-25T09:36:35;65089.03;;;20.07;46.15
6833;BME280;3454;42.654;23.378;2023-03-25T09:39:01;65086.25;;;20.04;46.03
6833;BME280;3454;42.654;23.378;2023-03-25T09:46:41;65176.16;;;20.84;43.73
6833;BME280;3454;42.654;23.378;2023-03-25T09:49:14;65240.69;;;21.47;43.60
6833;BME280;3454;42.654;23.378;2023-03-25T09:51:41;65303.56;;;22.02;42.32
6833;BME280;3454;42.654;23.378;2023-03-25T09:54:15;65291.97;;;21.92;41.43
6833;BME280;3454;42.654;23.378;2023-03-25T09:56:43;65157.34;;;20.67;43.37
6833;BME280;3454;42.654;23.378;2023-03-25T09:59:48;65136.00;;;20.50;43.31
6833;BME280;3454;42.654;23.378;2023-03-25T10:02:24;65197.94;;;21.06;42.09
6833;BME280;3454;42.654;23.378;2023-03-25T10:05:15;65204.00;;;21.12;43.58
6833;BME280;3454;42.654;23.378;2023-03-25T10:10:47;65127.16;;;20.42;43.03
6833;BME280;3454;42.654;23.378;2023-03-25T10:17:08;65108.16;;;20.22;42.59
6833;BME280;3454;42.654;23.378;2023-03-25T10:22:08;65046.50;;;19.68;42.38
6833;BME280;3454;42.654;23.378;2023-03-25T10:25:07;65077.97;;;19.97;42.41
6833;BME280;3454;42.654;23.378;2023-03-25T10:27:42;65128.81;;;20.43;42.36
6833;BME280;3454;42.654;23.378;2023-03-25T10:32:40;65175.59;;;20.83;40.30
6833;BME280;3454;42.654;23.378;2023-03-25T10:35:11;65209.91;;;21.15;39.41
6833;BME280;3454;42.654;23.378;2023-03-25T10:37:40;65239.94;;;21.44;38.95
6833;BME280;3454;42.654;23.378;2023-03-25T10:40:25;65229.97;;;21.35;37.71
6833;BME280;3454;42.654;23.378;2023-03-25T10:42:57;65189.28;;;21.01;37.25
6833;BME280;3454;42.654;23.378;2023-03-25T10:45:25;65209.34;;;21.14;36.74
6833;BME280;3454;42.654;23.378;2023-03-25T10:47:54;65264.06;;;21.64;35.83
6833;BME280;3454;42.654;23.378;2023-03-25T10:50:23;65313.00;;;22.11;34.66
6833;BME280;3454;42.654;23.378;2023-03-25T10:52:50;65377.22;;;22.69;34.31
6833;BME280;3454;42.654;23.378;2023-03-25T10:55:27;65461.41;;;23.46;34.93
6833;BME280;3454;42.654;23.378;2023-03-25T10:57:55;65455.53;;;23.43;33.49
6833;BME280;3454;42.654;23.378;2023-03-25T11:00:21;65456.97;;;23.42;33.52
6833;BME280;3454;42.654;23.378;2023-03-25T11:02:51;65420.94;;;23.09;33.04
6833;BME280;3454;42.654;23.378;2023-03-25T11:05:18;65343.06;;;22.40;34.50
6833;BME280;3454;42.654;23.378;2023-03-25T11:10:23;65312.06;;;22.12;35.75
6833;BME280;3454;42.654;23.378;2023-03-25T11:12:51;65343.63;;;22.41;36.15
6833;BME280;3454;42.654;23.378;2023-03-25T11:15:25;65340.84;;;22.38;35.68
6833;BME280;3454;42.654;23.378;2023-03-25T11:18:21;65393.84;;;22.84;35.39
6833;BME280;3454;42.654;23.378;2023-03-25T11:20:49;65416.53;;;23.05;34.86
6833;BME280;3454;42.654;23.378;2023-03-25T11:25:49;65389.94;;;22.81;35.13
6833;BME280;3454;42.654;23.378;2023-03-25T11:28:18;65402.88;;;22.95;35.01
6833;BME280;3454;42.654;23.378;2023-03-25T11:31:10;65382.00;;;22.71;35.79
6833;BME280;3454;42.654;23.378;2023-03-25T11:33:37;65394.94;;;22.85;35.58
6833;BME280;3454;42.654;23.378;2023-03-25T11:36:24;65484.34;;;23.69;35.08
6833;BME280;3454;42.654;23.378;2023-03-25T11:38:56;65476.56;;;23.62;33.60
6833;BME280;3454;42.654;23.378;2023-03-25T11:41:22;65517.22;;;24.01;33.75
6833;BME280;3454;42.654;23.378;2023-03-25T11:43:48;65581.72;;;24.55;32.32
6833;BME280;3454;42.654;23.378;2023-03-25T11:46:16;65553.09;;;24.31;33.94
6833;BME280;3454;42.654;23.378;2023-03-25T11:48:44;65490.63;;;23.77;33.15
6833;BME280;3454;42.654;23.378;2023-03-25T11:51:19;65538.13;;;24.17;33.11
6833;BME280;3454;42.654;23.378;2023-03-25T11:53:54;65632.22;;;25.01;31.26
6833;BME280;3454;42.654;23.378;2023-03-25T11:56:23;65644.44;;;25.12;31.56
6833;BME280;3454;42.654;23.378;2023-03-25T11:58:51;65680.16;;;25.46;31.73
6833;BME280;3454;42.654;23.378;2023-03-25T12:01:28;65610.03;;;24.80;31.05
6833;BME280;3454;42.654;23.378;2023-03-25T12:04:16;65612.44;;;24.85;31.15
6833;BME280;3454;42.654;23.378;2023-03-25T12:07:04;65660.72;;;25.29;31.02
6833;BME280;3454;42.654;23.378;2023-03-25T12:09:32;65673.28;;;25.38;31.10
6833;BME280;3454;42.654;23.378;2023-03-25T12:22:31;65444.03;;;23.27;32.58
6833;BME280;3454;42.654;23.378;2023-03-25T12:25:11;65383.31;;;22.75;33.52
6833;BME280;3454;42.654;23.378;2023-03-25T12:33:43;65323.50;;;22.20;35.18
6833;BME280;3454;42.654;23.378;2023-03-25T12:36:31;65291.41;;;21.91;35.08
6833;BME280;3454;42.654;23.378;2023-03-25T12:47:05;65231.66;;;21.37;35.72
6833;BME280;3454;42.654;23.378;2023-03-25T12:54:55;65205.66;;;21.13;35.39
6833;BME280;3454;42.654;23.378;2023-03-25T13:05:58;65136.00;;;20.50;36.67
6833;BME280;3454;42.654;23.378;2023-03-25T13:08:32;65158.47;;;20.68;37.21
6833;BME280;3454;42.654;23.378;2023-03-25T13:14:03;65121.06;;;20.36;36.75
6833;BME280;3454;42.654;23.378;2023-03-25T13:16:31;65106.16;;;20.23;36.83
6833;BME280;3454;42.654;23.378;2023-03-25T13:19:08;65079.97;;;19.96;37.30
6833;BME280;3454;42.654;23.378;2023-03-25T13:21:40;65077.78;;;19.94;36.99
6833;BME280;3454;42.654;23.378;2023-03-25T13:24:16;65057.34;;;19.76;37.34
6833;BME280;3454;42.654;23.378;2023-03-25T13:26:44;65053.69;;;19.75;38.25
6833;BME280;3454;42.654;23.378;2023-03-25T13:29:50;65053.69;;;19.75;37.89
6833;BME280;3454;42.654;23.378;2023-03-25T13:32:21;65041.34;;;19.61;38.36
6833;BME280;3454;42.654;23.378;2023-03-25T13:34:55;65035.47;;;19.58;38.82
6833;BME280;3454;42.654;23.378;2023-03-25T13:37:25;65027.75;;;19.51;38.96
6833;BME280;3454;42.654;23.378;2023-03-25T13:40:16;65015.38;;;19.38;39.78
6833;BME280;3454;42.654;23.378;2023-03-25T13:46:10;64995.69;;;19.22;39.81
6833;BME280;3454;42.654;23.378;2023-03-25T13:51:15;64964.25;;;18.93;39.96
6833;BME280;3454;42.654;23.378;2023-03-25T14:07:29;64854.06;;;17.88;46.08
6833;BME280;3454;42.654;23.378;2023-03-25T14:13:13;64756.38;;;17.04;53.57
6833;BME280;3454;42.654;23.378;2023-03-25T14:18:28;64766.66;;;17.11;55.99
6833;BME280;3454;42.654;23.378;2023-03-25T14:21:11;64718.38;;;16.69;58.69
6833;BME280;3454;42.654;23.378;2023-03-25T14:23:39;64675.56;;;16.25;62.08
6833;BME280;3454;42.654;23.378;2023-03-25T14:26:07;64654.31;;;16.08;65.69
6833;BME280;3454;42.654;23.378;2023-03-25T14:28:38;64636.91;;;15.94;66.08
6833;BME280;3454;42.654;23.378;2023-03-25T14:37:08;64634.84;;;15.88;69.18
6833;BME280;3454;42.654;23.378;2023-03-25T14:44:20;64611.19;;;15.66;77.89
6833;BME280;3454;42.654;23.378;2023-03-25T14:46:46;64614.16;;;15.71;76.58
6833;BME280;3454;42.654;23.378;2023-03-25T14:49:20;64622.41;;;15.79;77.98
6833;BME280;3454;42.654;23.378;2023-03-25T14:51:50;64627.00;;;15.85;75.98
6833;BME280;3454;42.654;23.378;2023-03-25T14:54:31;64630.25;;;15.81;77.53
6833;BME280;3454;42.654;23.378;2023-03-25T14:59:35;64646.41;;;15.98;78.67
6833;BME280;3454;42.654;23.378;2023-03-25T15:02:13;64650.78;;;16.03;79.29
6833;BME280;3454;42.654;23.378;2023-03-25T15:04:40;64647.69;;;16.02;80.23
6833;BME280;3454;42.654;23.378;2023-03-25T15:07:17;64662.56;;;16.16;81.21
6833;BME280;3454;42.654;23.378;2023-03-25T15:10:01;64688.22;;;16.37;78.61
6833;BME280;3454;42.654;23.378;2023-03-25T15:12:26;64697.25;;;16.47;77.61
6833;BME280;3454;42.654;23.378;2023-03-25T15:15:06;64720.38;;;16.68;75.62
6833;BME280;3454;42.654;23.378;2023-03-25T15:17:43;64734.34;;;16.84;75.49
6833;BME280;3454;42.654;23.378;2023-03-25T15:22:37;64736.91;;;16.84;74.88
6833;BME280;3454;42.654;23.378;2023-03-25T15:25:23;64746.25;;;16.92;76.56
6833;BME280;3454;42.654;23.378;2023-03-25T15:33:52;64718.16;;;16.66;72.77
6833;BME280;3454;42.654;23.378;2023-03-25T15:39:33;64698.31;;;16.48;73.14
6833;BME280;3454;42.654;23.378;2023-03-25T15:42:27;64708.28;;;16.57;71.54
6833;BME280;3454;42.654;23.378;2023-03-25T15:48:14;64732.72;;;16.82;73.71
6833;BME280;3454;42.654;23.378;2023-03-25T15:59:10;64671.72;;;16.22;69.97
6833;BME280;3454;42.654;23.378;2023-03-25T16:01:40;64666.97;;;16.20;70.51
6833;BME280;3454;42.654;23.378;2023-03-25T16:06:52;64665.31;;;16.18;70.99
6833;BME280;3454;42.654;23.378;2023-03-25T16:09:23;64683.13;;;16.37;72.66